This is the latest recevied weather packets stored in our database for station/object K0SNA. If no packets are shown the sender has not sent any weather packets the latest 10 day(s).
| Time | Temp. | Humidity | Pressure | Rain* | Wind** | Luminosity | Snow |
|---|---|---|---|---|---|---|---|
| 1777880600 | 13.33° C | 44% | 998.9 hPa | 0 mm | - | 0 W/m² | - |
| 1777880298 | 13.33° C | 44% | 999.3 hPa | 0 mm | - | 0 W/m² | - |
| 1777879996 | 13.33° C | 45% | 999.2 hPa | 0 mm | - | 0 W/m² | - |
| 1777879695 | 13.89° C | 44% | 999.3 hPa | 0 mm | - | 0 W/m² | - |
| 1777879390 | 13.89° C | 44% | 999.4 hPa | 0 mm | - | 0 W/m² | - |
| 1777879088 | 13.33° C | 44% | 999.3 hPa | 0 mm | - | 0 W/m² | - |
| 1777878785 | 13.33° C | 46% | 999.6 hPa | 0 mm | - | 0 W/m² | - |
| 1777878483 | 13.33° C | 46% | 999.4 hPa | 0 mm | - | 0 W/m² | - |
| 1777878178 | 12.78° C | 47% | 999.7 hPa | 0 mm | - | 0 W/m² | - |
| 1777877875 | 12.22° C | 51% | 999.8 hPa | 0 mm | - | 0 W/m² | - |
| 1777877572 | 12.22° C | 51% | 1000 hPa | 0 mm | - | 0 W/m² | - |
| 1777877268 | 12.78° C | 49% | 999.9 hPa | 0 mm | - | 0 W/m² | - |
| 1777876966 | 12.78° C | 48% | 1000.2 hPa | 0 mm | - | 0 W/m² | - |
| 1777876663 | 12.78° C | 49% | 1000.2 hPa | 0 mm | - | 0 W/m² | - |
| 1777876361 | 12.78° C | 48% | 1000.4 hPa | 0 mm | - | 0 W/m² | - |
| 1777876057 | 12.78° C | 48% | 1000.5 hPa | 0 mm | - | 0 W/m² | - |
| 1777875752 | 12.78° C | 48% | 1000.7 hPa | 0 mm | - | 0 W/m² | - |
| 1777875449 | 12.22° C | 48% | 1000.8 hPa | 0 mm | - | 0 W/m² | - |
| 1777875146 | 12.22° C | 49% | 1000.8 hPa | 0 mm | - | 0 W/m² | - |
| 1777874843 | 11.11° C | 51% | 1000.8 hPa | 0 mm | - | 0 W/m² | - |
| 1777874539 | 10.56° C | 55% | 1001 hPa | 0 mm | - | 0 W/m² | - |
| 1777874237 | 11.11° C | 54% | 1001 hPa | 0 mm | - | 0 W/m² | - |
| 1777873934 | 11.11° C | 54% | 1001.3 hPa | 0 mm | - | 0 W/m² | - |
| 1777873630 | 11.11° C | 53% | 1001.3 hPa | 0 mm | - | 0 W/m² | - |
| 1777873328 | 11.11° C | 52% | 1001.4 hPa | 0 mm | - | 0 W/m² | - |
* Rain latest hour (hover to see other rain measurements)
** Current wind speed in m/s (hover to see current wind gust speed)